sensor_id;sensor_type;location;lat;lon;timestamp;P1;durP1;ratioP1;P2;durP2;ratioP2
41275;SDS011;27010;47.718;12.912;2023-02-26T00:01:56;1.67;;;1.20;;
41275;SDS011;27010;47.718;12.912;2023-02-26T00:05:02;0.80;;;0.70;;
41275;SDS011;27010;47.718;12.912;2023-02-26T00:08:07;1.07;;;0.97;;
41275;SDS011;27010;47.718;12.912;2023-02-26T00:11:10;0.93;;;0.80;;
41275;SDS011;27010;47.718;12.912;2023-02-26T00:14:13;1.63;;;0.83;;
41275;SDS011;27010;47.718;12.912;2023-02-26T00:17:31;1.03;;;0.90;;
41275;SDS011;27010;47.718;12.912;2023-02-26T00:20:41;1.10;;;0.83;;
41275;SDS011;27010;47.718;12.912;2023-02-26T00:23:46;1.40;;;0.80;;
41275;SDS011;27010;47.718;12.912;2023-02-26T00:26:48;1.10;;;1.00;;
41275;SDS011;27010;47.718;12.912;2023-02-26T00:29:52;2.83;;;1.07;;
41275;SDS011;27010;47.718;12.912;2023-02-26T00:32:55;0.70;;;0.63;;
41275;SDS011;27010;47.718;12.912;2023-02-26T00:36:09;1.50;;;1.10;;
41275;SDS011;27010;47.718;12.912;2023-02-26T00:39:30;1.80;;;1.23;;
41275;SDS011;27010;47.718;12.912;2023-02-26T00:42:39;2.63;;;1.20;;
41275;SDS011;27010;47.718;12.912;2023-02-26T00:45:46;1.30;;;0.97;;
41275;SDS011;27010;47.718;12.912;2023-02-26T00:52:23;2.27;;;1.37;;
41275;SDS011;27010;47.718;12.912;2023-02-26T00:55:30;3.83;;;2.20;;
41275;SDS011;27010;47.718;12.912;2023-02-26T00:58:32;3.33;;;1.30;;
41275;SDS011;27010;47.718;12.912;2023-02-26T01:01:34;1.50;;;1.03;;
41275;SDS011;27010;47.718;12.912;2023-02-26T01:04:36;2.37;;;1.40;;
41275;SDS011;27010;47.718;12.912;2023-02-26T01:11:03;2.10;;;1.90;;
41275;SDS011;27010;47.718;12.912;2023-02-26T01:14:05;2.47;;;1.90;;
41275;SDS011;27010;47.718;12.912;2023-02-26T01:20:28;3.33;;;2.27;;
41275;SDS011;27010;47.718;12.912;2023-02-26T01:23:34;2.37;;;2.10;;
41275;SDS011;27010;47.718;12.912;2023-02-26T01:26:41;3.40;;;2.73;;
41275;SDS011;27010;47.718;12.912;2023-02-26T01:29:43;3.40;;;2.90;;
41275;SDS011;27010;47.718;12.912;2023-02-26T01:32:48;2.90;;;2.37;;
41275;SDS011;27010;47.718;12.912;2023-02-26T01:36:05;2.83;;;2.00;;
41275;SDS011;27010;47.718;12.912;2023-02-26T01:39:18;2.27;;;1.83;;
41275;SDS011;27010;47.718;12.912;2023-02-26T01:42:26;2.93;;;1.80;;
41275;SDS011;27010;47.718;12.912;2023-02-26T01:45:34;3.10;;;2.37;;
41275;SDS011;27010;47.718;12.912;2023-02-26T01:51:49;3.33;;;2.07;;
41275;SDS011;27010;47.718;12.912;2023-02-26T01:54:53;2.03;;;1.80;;
41275;SDS011;27010;47.718;12.912;2023-02-26T01:57:56;2.60;;;2.00;;
41275;SDS011;27010;47.718;12.912;2023-02-26T02:01:01;3.17;;;2.17;;
41275;SDS011;27010;47.718;12.912;2023-02-26T02:04:05;3.43;;;1.90;;
41275;SDS011;27010;47.718;12.912;2023-02-26T02:07:11;2.70;;;2.40;;
41275;SDS011;27010;47.718;12.912;2023-02-26T02:10:13;2.60;;;2.20;;
41275;SDS011;27010;47.718;12.912;2023-02-26T02:17:00;2.33;;;1.73;;
41275;SDS011;27010;47.718;12.912;2023-02-26T02:26:41;2.10;;;1.70;;
41275;SDS011;27010;47.718;12.912;2023-02-26T02:29:53;1.60;;;1.30;;
41275;SDS011;27010;47.718;12.912;2023-02-26T02:33:19;2.03;;;1.70;;
41275;SDS011;27010;47.718;12.912;2023-02-26T02:36:38;1.60;;;1.37;;
41275;SDS011;27010;47.718;12.912;2023-02-26T02:39:43;1.33;;;1.20;;
41275;SDS011;27010;47.718;12.912;2023-02-26T02:43:08;2.90;;;2.10;;
41275;SDS011;27010;47.718;12.912;2023-02-26T02:46:13;3.23;;;1.87;;
41275;SDS011;27010;47.718;12.912;2023-02-26T02:49:22;5.47;;;2.07;;
41275;SDS011;27010;47.718;12.912;2023-02-26T02:52:30;3.20;;;2.50;;
41275;SDS011;27010;47.718;12.912;2023-02-26T02:55:38;3.83;;;2.50;;
41275;SDS011;27010;47.718;12.912;2023-02-26T02:58:48;4.07;;;2.87;;
41275;SDS011;27010;47.718;12.912;2023-02-26T03:02:04;4.67;;;2.40;;
41275;SDS011;27010;47.718;12.912;2023-02-26T03:05:08;3.27;;;2.67;;
41275;SDS011;27010;47.718;12.912;2023-02-26T03:08:18;2.80;;;2.40;;
41275;SDS011;27010;47.718;12.912;2023-02-26T03:11:22;3.13;;;2.47;;
41275;SDS011;27010;47.718;12.912;2023-02-26T03:14:24;3.27;;;2.53;;
41275;SDS011;27010;47.718;12.912;2023-02-26T03:17:50;4.17;;;2.77;;
41275;SDS011;27010;47.718;12.912;2023-02-26T03:21:03;3.47;;;2.13;;
41275;SDS011;27010;47.718;12.912;2023-02-26T03:24:27;3.37;;;2.40;;
41275;SDS011;27010;47.718;12.912;2023-02-26T03:31:29;2.87;;;2.53;;
41275;SDS011;27010;47.718;12.912;2023-02-26T03:34:42;3.60;;;2.57;;
41275;SDS011;27010;47.718;12.912;2023-02-26T03:37:49;2.03;;;1.83;;
41275;SDS011;27010;47.718;12.912;2023-02-26T03:40:57;5.17;;;2.63;;
41275;SDS011;27010;47.718;12.912;2023-02-26T03:44:19;2.40;;;2.20;;
41275;SDS011;27010;47.718;12.912;2023-02-26T03:47:24;2.57;;;2.30;;
41275;SDS011;27010;47.718;12.912;2023-02-26T03:50:37;4.40;;;2.70;;
41275;SDS011;27010;47.718;12.912;2023-02-26T03:53:48;3.43;;;2.73;;
41275;SDS011;27010;47.718;12.912;2023-02-26T03:56:53;3.40;;;2.57;;
41275;SDS011;27010;47.718;12.912;2023-02-26T03:59:55;2.67;;;2.13;;
41275;SDS011;27010;47.718;12.912;2023-02-26T04:02:58;3.70;;;2.60;;
41275;SDS011;27010;47.718;12.912;2023-02-26T04:06:03;3.37;;;2.70;;
41275;SDS011;27010;47.718;12.912;2023-02-26T04:09:06;3.33;;;2.77;;
41275;SDS011;27010;47.718;12.912;2023-02-26T04:12:08;2.97;;;2.57;;
41275;SDS011;27010;47.718;12.912;2023-02-26T04:15:10;3.03;;;2.53;;
41275;SDS011;27010;47.718;12.912;2023-02-26T04:18:13;3.83;;;3.00;;
41275;SDS011;27010;47.718;12.912;2023-02-26T04:21:19;4.07;;;3.33;;
41275;SDS011;27010;47.718;12.912;2023-02-26T04:24:22;4.73;;;2.60;;
41275;SDS011;27010;47.718;12.912;2023-02-26T04:27:24;3.63;;;2.97;;
41275;SDS011;27010;47.718;12.912;2023-02-26T04:30:26;3.93;;;3.20;;
41275;SDS011;27010;47.718;12.912;2023-02-26T04:33:28;4.63;;;3.53;;
41275;SDS011;27010;47.718;12.912;2023-02-26T04:36:30;4.23;;;3.10;;
41275;SDS011;27010;47.718;12.912;2023-02-26T04:39:32;3.87;;;3.27;;
41275;SDS011;27010;47.718;12.912;2023-02-26T04:42:34;4.40;;;3.63;;
41275;SDS011;27010;47.718;12.912;2023-02-26T04:45:36;4.63;;;3.60;;
41275;SDS011;27010;47.718;12.912;2023-02-26T04:48:38;5.23;;;3.60;;
41275;SDS011;27010;47.718;12.912;2023-02-26T04:51:40;4.47;;;3.33;;
41275;SDS011;27010;47.718;12.912;2023-02-26T04:54:42;3.80;;;3.23;;
41275;SDS011;27010;47.718;12.912;2023-02-26T04:57:44;4.83;;;3.90;;
41275;SDS011;27010;47.718;12.912;2023-02-26T05:00:47;4.70;;;3.50;;
41275;SDS011;27010;47.718;12.912;2023-02-26T05:03:54;4.57;;;3.70;;
41275;SDS011;27010;47.718;12.912;2023-02-26T05:06:56;4.23;;;3.77;;
41275;SDS011;27010;47.718;12.912;2023-02-26T05:09:57;5.17;;;4.27;;
41275;SDS011;27010;47.718;12.912;2023-02-26T05:13:00;5.07;;;3.90;;
41275;SDS011;27010;47.718;12.912;2023-02-26T05:16:02;5.03;;;3.77;;
41275;SDS011;27010;47.718;12.912;2023-02-26T05:19:04;4.97;;;3.63;;
41275;SDS011;27010;47.718;12.912;2023-02-26T05:22:06;5.83;;;4.13;;
41275;SDS011;27010;47.718;12.912;2023-02-26T05:25:09;4.00;;;3.33;;
41275;SDS011;27010;47.718;12.912;2023-02-26T05:28:15;5.83;;;3.87;;
41275;SDS011;27010;47.718;12.912;2023-02-26T05:31:17;4.67;;;3.00;;
41275;SDS011;27010;47.718;12.912;2023-02-26T05:34:19;4.53;;;3.80;;
41275;SDS011;27010;47.718;12.912;2023-02-26T05:37:21;4.00;;;3.53;;
41275;SDS011;27010;47.718;12.912;2023-02-26T05:40:23;4.67;;;3.83;;
41275;SDS011;27010;47.718;12.912;2023-02-26T05:43:26;5.83;;;4.50;;
41275;SDS011;27010;47.718;12.912;2023-02-26T05:46:28;4.83;;;3.67;;
41275;SDS011;27010;47.718;12.912;2023-02-26T05:49:30;4.20;;;3.57;;
41275;SDS011;27010;47.718;12.912;2023-02-26T05:52:33;5.00;;;4.07;;
41275;SDS011;27010;47.718;12.912;2023-02-26T05:55:35;5.13;;;4.00;;
41275;SDS011;27010;47.718;12.912;2023-02-26T05:58:37;5.97;;;4.17;;
41275;SDS011;27010;47.718;12.912;2023-02-26T06:01:39;5.33;;;4.27;;
41275;SDS011;27010;47.718;12.912;2023-02-26T06:04:43;4.93;;;4.07;;
41275;SDS011;27010;47.718;12.912;2023-02-26T06:07:45;4.73;;;3.77;;
41275;SDS011;27010;47.718;12.912;2023-02-26T06:10:48;5.60;;;3.77;;
41275;SDS011;27010;47.718;12.912;2023-02-26T06:13:52;6.43;;;3.83;;
41275;SDS011;27010;47.718;12.912;2023-02-26T06:16:55;3.50;;;2.67;;
41275;SDS011;27010;47.718;12.912;2023-02-26T06:19:57;7.27;;;4.73;;
41275;SDS011;27010;47.718;12.912;2023-02-26T06:22:59;6.23;;;4.47;;
41275;SDS011;27010;47.718;12.912;2023-02-26T06:26:01;5.17;;;4.20;;
41275;SDS011;27010;47.718;12.912;2023-02-26T06:29:03;5.97;;;4.57;;
41275;SDS011;27010;47.718;12.912;2023-02-26T06:32:05;6.73;;;4.97;;
41275;SDS011;27010;47.718;12.912;2023-02-26T06:35:08;5.40;;;4.50;;
41275;SDS011;27010;47.718;12.912;2023-02-26T06:38:11;7.17;;;5.47;;
41275;SDS011;27010;47.718;12.912;2023-02-26T06:41:14;7.67;;;5.17;;
41275;SDS011;27010;47.718;12.912;2023-02-26T06:44:16;6.53;;;4.60;;
41275;SDS011;27010;47.718;12.912;2023-02-26T06:47:18;6.30;;;5.30;;
41275;SDS011;27010;47.718;12.912;2023-02-26T06:50:20;5.40;;;4.03;;
41275;SDS011;27010;47.718;12.912;2023-02-26T06:53:22;5.53;;;4.50;;
41275;SDS011;27010;47.718;12.912;2023-02-26T06:56:24;6.73;;;4.70;;
41275;SDS011;27010;47.718;12.912;2023-02-26T06:59:26;6.67;;;4.97;;
41275;SDS011;27010;47.718;12.912;2023-02-26T07:02:29;7.67;;;5.17;;
41275;SDS011;27010;47.718;12.912;2023-02-26T07:05:31;7.03;;;5.27;;
41275;SDS011;27010;47.718;12.912;2023-02-26T07:08:33;6.27;;;5.07;;
41275;SDS011;27010;47.718;12.912;2023-02-26T07:11:36;7.20;;;5.20;;
41275;SDS011;27010;47.718;12.912;2023-02-26T07:14:38;7.07;;;4.87;;
41275;SDS011;27010;47.718;12.912;2023-02-26T07:17:41;5.03;;;4.23;;
41275;SDS011;27010;47.718;12.912;2023-02-26T07:20:43;5.07;;;3.83;;
41275;SDS011;27010;47.718;12.912;2023-02-26T07:23:45;7.33;;;4.67;;
41275;SDS011;27010;47.718;12.912;2023-02-26T07:26:47;6.40;;;4.20;;
41275;SDS011;27010;47.718;12.912;2023-02-26T07:29:50;6.67;;;4.13;;
41275;SDS011;27010;47.718;12.912;2023-02-26T07:32:52;5.20;;;4.57;;
41275;SDS011;27010;47.718;12.912;2023-02-26T07:35:55;6.23;;;4.90;;
41275;SDS011;27010;47.718;12.912;2023-02-26T07:38:57;6.13;;;4.60;;
41275;SDS011;27010;47.718;12.912;2023-02-26T07:41:58;6.50;;;4.80;;
41275;SDS011;27010;47.718;12.912;2023-02-26T07:45:01;6.27;;;4.97;;
41275;SDS011;27010;47.718;12.912;2023-02-26T07:48:05;7.43;;;5.50;;
41275;SDS011;27010;47.718;12.912;2023-02-26T07:51:08;6.93;;;5.07;;
41275;SDS011;27010;47.718;12.912;2023-02-26T07:54:11;5.63;;;4.73;;
41275;SDS011;27010;47.718;12.912;2023-02-26T07:57:14;6.50;;;4.67;;
41275;SDS011;27010;47.718;12.912;2023-02-26T08:00:16;5.20;;;4.10;;
41275;SDS011;27010;47.718;12.912;2023-02-26T08:03:20;6.10;;;5.10;;
41275;SDS011;27010;47.718;12.912;2023-02-26T08:06:22;6.43;;;5.23;;
41275;SDS011;27010;47.718;12.912;2023-02-26T08:09:25;7.23;;;4.43;;
41275;SDS011;27010;47.718;12.912;2023-02-26T08:12:27;6.33;;;4.00;;
41275;SDS011;27010;47.718;12.912;2023-02-26T08:15:29;5.87;;;4.37;;
41275;SDS011;27010;47.718;12.912;2023-02-26T08:18:31;7.73;;;4.67;;
41275;SDS011;27010;47.718;12.912;2023-02-26T08:21:33;5.40;;;4.13;;
41275;SDS011;27010;47.718;12.912;2023-02-26T08:24:35;5.10;;;4.30;;
41275;SDS011;27010;47.718;12.912;2023-02-26T08:27:38;6.20;;;5.20;;
41275;SDS011;27010;47.718;12.912;2023-02-26T08:30:40;5.20;;;4.23;;
41275;SDS011;27010;47.718;12.912;2023-02-26T08:33:42;5.03;;;4.33;;
41275;SDS011;27010;47.718;12.912;2023-02-26T08:36:45;5.10;;;4.17;;
41275;SDS011;27010;47.718;12.912;2023-02-26T08:39:47;6.17;;;4.73;;
41275;SDS011;27010;47.718;12.912;2023-02-26T08:42:49;5.13;;;4.10;;
41275;SDS011;27010;47.718;12.912;2023-02-26T08:45:51;4.93;;;3.93;;
41275;SDS011;27010;47.718;12.912;2023-02-26T08:48:54;4.33;;;3.60;;
41275;SDS011;27010;47.718;12.912;2023-02-26T08:51:56;5.83;;;3.83;;
41275;SDS011;27010;47.718;12.912;2023-02-26T08:54:58;4.63;;;3.93;;
41275;SDS011;27010;47.718;12.912;2023-02-26T08:58:01;3.60;;;3.30;;
41275;SDS011;27010;47.718;12.912;2023-02-26T09:01:04;4.73;;;3.60;;
41275;SDS011;27010;47.718;12.912;2023-02-26T09:04:07;4.90;;;3.07;;
41275;SDS011;27010;47.718;12.912;2023-02-26T09:07:11;4.57;;;3.53;;
41275;SDS011;27010;47.718;12.912;2023-02-26T09:10:13;3.93;;;2.90;;
41275;SDS011;27010;47.718;12.912;2023-02-26T09:13:15;4.57;;;3.50;;
41275;SDS011;27010;47.718;12.912;2023-02-26T09:16:18;5.30;;;3.73;;
41275;SDS011;27010;47.718;12.912;2023-02-26T09:19:20;4.83;;;3.20;;
41275;SDS011;27010;47.718;12.912;2023-02-26T09:22:23;3.63;;;2.60;;
41275;SDS011;27010;47.718;12.912;2023-02-26T09:25:25;3.33;;;2.90;;
41275;SDS011;27010;47.718;12.912;2023-02-26T09:28:27;3.87;;;2.80;;
41275;SDS011;27010;47.718;12.912;2023-02-26T09:31:29;2.90;;;2.50;;
41275;SDS011;27010;47.718;12.912;2023-02-26T09:34:31;4.73;;;3.60;;
41275;SDS011;27010;47.718;12.912;2023-02-26T09:37:33;5.10;;;3.13;;
41275;SDS011;27010;47.718;12.912;2023-02-26T09:47:12;4.83;;;3.27;;
41275;SDS011;27010;47.718;12.912;2023-02-26T09:50:18;3.13;;;2.80;;
41275;SDS011;27010;47.718;12.912;2023-02-26T09:53:34;5.47;;;3.40;;
41275;SDS011;27010;47.718;12.912;2023-02-26T09:56:40;3.67;;;2.87;;
41275;SDS011;27010;47.718;12.912;2023-02-26T09:59:43;2.70;;;2.50;;
41275;SDS011;27010;47.718;12.912;2023-02-26T10:13:45;2.60;;;2.40;;
41275;SDS011;27010;47.718;12.912;2023-02-26T10:16:59;2.50;;;2.30;;
41275;SDS011;27010;47.718;12.912;2023-02-26T10:26:39;2.10;;;1.90;;
41275;SDS011;27010;47.718;12.912;2023-02-26T10:29:55;3.37;;;2.30;;
41275;SDS011;27010;47.718;12.912;2023-02-26T10:40:25;3.03;;;2.73;;
41275;SDS011;27010;47.718;12.912;2023-02-26T10:46:55;5.10;;;2.87;;
41275;SDS011;27010;47.718;12.912;2023-02-26T10:50:05;3.67;;;2.57;;
41275;SDS011;27010;47.718;12.912;2023-02-26T10:53:10;3.73;;;2.87;;
41275;SDS011;27010;47.718;12.912;2023-02-26T10:56:14;3.30;;;2.53;;
41275;SDS011;27010;47.718;12.912;2023-02-26T10:59:19;4.40;;;2.37;;
41275;SDS011;27010;47.718;12.912;2023-02-26T11:02:30;2.97;;;2.23;;
41275;SDS011;27010;47.718;12.912;2023-02-26T11:05:35;5.70;;;2.20;;
41275;SDS011;27010;47.718;12.912;2023-02-26T11:08:47;2.80;;;2.13;;
41275;SDS011;27010;47.718;12.912;2023-02-26T11:11:53;4.00;;;2.60;;
41275;SDS011;27010;47.718;12.912;2023-02-26T11:14:56;2.53;;;2.20;;
41275;SDS011;27010;47.718;12.912;2023-02-26T11:18:02;3.23;;;2.43;;
41275;SDS011;27010;47.718;12.912;2023-02-26T11:21:05;2.27;;;2.00;;
41275;SDS011;27010;47.718;12.912;2023-02-26T11:27:16;2.53;;;1.80;;
41275;SDS011;27010;47.718;12.912;2023-02-26T11:30:20;2.67;;;2.20;;
41275;SDS011;27010;47.718;12.912;2023-02-26T11:33:26;2.93;;;2.23;;
41275;SDS011;27010;47.718;12.912;2023-02-26T11:36:30;2.90;;;2.33;;
41275;SDS011;27010;47.718;12.912;2023-02-26T11:39:34;2.90;;;2.60;;
41275;SDS011;27010;47.718;12.912;2023-02-26T11:42:55;2.30;;;1.73;;
41275;SDS011;27010;47.718;12.912;2023-02-26T11:46:03;2.67;;;1.90;;
41275;SDS011;27010;47.718;12.912;2023-02-26T11:49:07;2.30;;;1.90;;
41275;SDS011;27010;47.718;12.912;2023-02-26T11:55:30;2.40;;;1.80;;
41275;SDS011;27010;47.718;12.912;2023-02-26T11:58:35;1.63;;;1.43;;
41275;SDS011;27010;47.718;12.912;2023-02-26T12:01:40;2.13;;;1.60;;
41275;SDS011;27010;47.718;12.912;2023-02-26T12:04:44;1.67;;;1.43;;
41275;SDS011;27010;47.718;12.912;2023-02-26T12:07:47;2.37;;;2.00;;
41275;SDS011;27010;47.718;12.912;2023-02-26T12:17:52;2.57;;;1.60;;
41275;SDS011;27010;47.718;12.912;2023-02-26T12:31:34;1.83;;;1.60;;
41275;SDS011;27010;47.718;12.912;2023-02-26T12:48:32;3.80;;;2.70;;
41275;SDS011;27010;47.718;12.912;2023-02-26T12:55:22;3.40;;;1.90;;
41275;SDS011;27010;47.718;12.912;2023-02-26T13:08:39;3.60;;;2.13;;
41275;SDS011;27010;47.718;12.912;2023-02-26T13:12:08;2.67;;;2.40;;
41275;SDS011;27010;47.718;12.912;2023-02-26T13:22:33;5.10;;;3.10;;
41275;SDS011;27010;47.718;12.912;2023-02-26T13:25:42;4.30;;;2.93;;
41275;SDS011;27010;47.718;12.912;2023-02-26T13:28:53;4.40;;;3.20;;
41275;SDS011;27010;47.718;12.912;2023-02-26T13:35:03;7.53;;;6.37;;
41275;SDS011;27010;47.718;12.912;2023-02-26T13:38:14;4.47;;;4.07;;
41275;SDS011;27010;47.718;12.912;2023-02-26T13:41:29;3.60;;;2.77;;
41275;SDS011;27010;47.718;12.912;2023-02-26T13:45:19;6.97;;;5.00;;
41275;SDS011;27010;47.718;12.912;2023-02-26T13:51:33;4.77;;;3.47;;
41275;SDS011;27010;47.718;12.912;2023-02-26T13:54:47;4.10;;;3.27;;
41275;SDS011;27010;47.718;12.912;2023-02-26T13:57:50;4.07;;;3.00;;
41275;SDS011;27010;47.718;12.912;2023-02-26T14:00:57;2.53;;;2.30;;
41275;SDS011;27010;47.718;12.912;2023-02-26T14:14:22;2.30;;;2.10;;
41275;SDS011;27010;47.718;12.912;2023-02-26T14:20:35;2.80;;;1.97;;
41275;SDS011;27010;47.718;12.912;2023-02-26T14:23:37;2.90;;;2.20;;
41275;SDS011;27010;47.718;12.912;2023-02-26T14:26:43;2.90;;;2.47;;
41275;SDS011;27010;47.718;12.912;2023-02-26T14:35:59;2.43;;;2.23;;
41275;SDS011;27010;47.718;12.912;2023-02-26T14:39:04;3.53;;;2.17;;
41275;SDS011;27010;47.718;12.912;2023-02-26T14:42:11;1.53;;;1.40;;
41275;SDS011;27010;47.718;12.912;2023-02-26T14:45:27;1.80;;;1.00;;
41275;SDS011;27010;47.718;12.912;2023-02-26T14:48:31;1.47;;;0.93;;
41275;SDS011;27010;47.718;12.912;2023-02-26T14:54:45;1.83;;;1.00;;
41275;SDS011;27010;47.718;12.912;2023-02-26T15:01:28;1.57;;;1.20;;
41275;SDS011;27010;47.718;12.912;2023-02-26T15:04:48;2.10;;;1.50;;
41275;SDS011;27010;47.718;12.912;2023-02-26T15:08:22;1.83;;;1.33;;
41275;SDS011;27010;47.718;12.912;2023-02-26T15:18:56;1.40;;;1.20;;
41275;SDS011;27010;47.718;12.912;2023-02-26T15:22:24;1.40;;;1.27;;
41275;SDS011;27010;47.718;12.912;2023-02-26T15:25:40;1.20;;;1.03;;
41275;SDS011;27010;47.718;12.912;2023-02-26T15:28:43;1.50;;;1.30;;
41275;SDS011;27010;47.718;12.912;2023-02-26T15:31:51;1.60;;;1.50;;
41275;SDS011;27010;47.718;12.912;2023-02-26T15:35:30;1.80;;;1.10;;
41275;SDS011;27010;47.718;12.912;2023-02-26T15:38:25;1.47;;;1.23;;
41275;SDS011;27010;47.718;12.912;2023-02-26T15:41:28;1.63;;;1.40;;
41275;SDS011;27010;47.718;12.912;2023-02-26T15:44:31;2.40;;;1.70;;
41275;SDS011;27010;47.718;12.912;2023-02-26T15:47:34;1.63;;;1.33;;
41275;SDS011;27010;47.718;12.912;2023-02-26T15:50:40;2.13;;;1.67;;
41275;SDS011;27010;47.718;12.912;2023-02-26T15:53:46;2.37;;;2.00;;
41275;SDS011;27010;47.718;12.912;2023-02-26T15:56:51;2.97;;;1.67;;
41275;SDS011;27010;47.718;12.912;2023-02-26T15:59:59;2.70;;;1.50;;
41275;SDS011;27010;47.718;12.912;2023-02-26T16:03:11;1.67;;;1.37;;
41275;SDS011;27010;47.718;12.912;2023-02-26T16:07:04;1.87;;;1.50;;
41275;SDS011;27010;47.718;12.912;2023-02-26T16:10:32;2.13;;;1.40;;
41275;SDS011;27010;47.718;12.912;2023-02-26T16:13:57;2.77;;;1.67;;
41275;SDS011;27010;47.718;12.912;2023-02-26T16:17:00;4.47;;;2.03;;
41275;SDS011;27010;47.718;12.912;2023-02-26T16:20:03;1.37;;;1.27;;
41275;SDS011;27010;47.718;12.912;2023-02-26T16:23:20;2.83;;;1.20;;
41275;SDS011;27010;47.718;12.912;2023-02-26T16:26:34;1.40;;;1.30;;
41275;SDS011;27010;47.718;12.912;2023-02-26T16:29:43;2.40;;;2.20;;
41275;SDS011;27010;47.718;12.912;2023-02-26T16:32:53;1.77;;;1.60;;
41275;SDS011;27010;47.718;12.912;2023-02-26T16:39:16;2.10;;;1.77;;
41275;SDS011;27010;47.718;12.912;2023-02-26T16:45:55;1.63;;;1.40;;
41275;SDS011;27010;47.718;12.912;2023-02-26T16:48:59;2.23;;;1.70;;
41275;SDS011;27010;47.718;12.912;2023-02-26T16:52:04;6.70;;;2.17;;
41275;SDS011;27010;47.718;12.912;2023-02-26T16:55:06;4.50;;;2.80;;
41275;SDS011;27010;47.718;12.912;2023-02-26T16:58:13;3.73;;;2.50;;
41275;SDS011;27010;47.718;12.912;2023-02-26T17:01:17;1.73;;;1.63;;
41275;SDS011;27010;47.718;12.912;2023-02-26T17:04:23;6.30;;;1.80;;
41275;SDS011;27010;47.718;12.912;2023-02-26T17:07:46;1.63;;;1.30;;
41275;SDS011;27010;47.718;12.912;2023-02-26T17:10:54;1.73;;;1.30;;
41275;SDS011;27010;47.718;12.912;2023-02-26T17:14:05;2.03;;;1.50;;
41275;SDS011;27010;47.718;12.912;2023-02-26T17:17:12;1.50;;;1.17;;
41275;SDS011;27010;47.718;12.912;2023-02-26T17:20:14;4.07;;;1.70;;
41275;SDS011;27010;47.718;12.912;2023-02-26T17:23:17;2.30;;;1.30;;
41275;SDS011;27010;47.718;12.912;2023-02-26T17:26:19;1.70;;;1.30;;
41275;SDS011;27010;47.718;12.912;2023-02-26T17:29:25;1.23;;;1.10;;
41275;SDS011;27010;47.718;12.912;2023-02-26T17:32:32;1.80;;;1.37;;
41275;SDS011;27010;47.718;12.912;2023-02-26T17:35:35;2.97;;;2.10;;
41275;SDS011;27010;47.718;12.912;2023-02-26T17:38:37;2.13;;;1.70;;
41275;SDS011;27010;47.718;12.912;2023-02-26T17:41:43;1.67;;;1.53;;
41275;SDS011;27010;47.718;12.912;2023-02-26T17:44:46;2.87;;;2.20;;
41275;SDS011;27010;47.718;12.912;2023-02-26T17:47:49;2.47;;;1.90;;
41275;SDS011;27010;47.718;12.912;2023-02-26T17:50:52;6.53;;;2.30;;
41275;SDS011;27010;47.718;12.912;2023-02-26T17:53:55;2.43;;;2.03;;
41275;SDS011;27010;47.718;12.912;2023-02-26T17:56:57;4.37;;;2.60;;
41275;SDS011;27010;47.718;12.912;2023-02-26T18:00:00;4.97;;;2.77;;
41275;SDS011;27010;47.718;12.912;2023-02-26T18:03:02;3.13;;;2.10;;
41275;SDS011;27010;47.718;12.912;2023-02-26T18:06:05;2.63;;;2.10;;
41275;SDS011;27010;47.718;12.912;2023-02-26T18:09:09;2.17;;;1.80;;
41275;SDS011;27010;47.718;12.912;2023-02-26T18:12:13;5.13;;;2.50;;
41275;SDS011;27010;47.718;12.912;2023-02-26T18:15:17;3.60;;;2.93;;
41275;SDS011;27010;47.718;12.912;2023-02-26T18:18:19;3.87;;;2.73;;
41275;SDS011;27010;47.718;12.912;2023-02-26T18:21:22;3.50;;;2.73;;
41275;SDS011;27010;47.718;12.912;2023-02-26T18:24:26;3.87;;;2.70;;
41275;SDS011;27010;47.718;12.912;2023-02-26T18:27:28;4.33;;;3.03;;
41275;SDS011;27010;47.718;12.912;2023-02-26T18:30:32;4.43;;;2.87;;
41275;SDS011;27010;47.718;12.912;2023-02-26T18:33:36;4.90;;;2.80;;
41275;SDS011;27010;47.718;12.912;2023-02-26T18:36:41;3.40;;;2.10;;
41275;SDS011;27010;47.718;12.912;2023-02-26T18:39:43;2.50;;;2.23;;
41275;SDS011;27010;47.718;12.912;2023-02-26T18:42:45;4.50;;;2.83;;
41275;SDS011;27010;47.718;12.912;2023-02-26T18:45:48;4.97;;;3.27;;
41275;SDS011;27010;47.718;12.912;2023-02-26T18:48:51;3.50;;;2.80;;
41275;SDS011;27010;47.718;12.912;2023-02-26T18:51:53;5.20;;;2.70;;
41275;SDS011;27010;47.718;12.912;2023-02-26T18:54:56;3.83;;;2.83;;
41275;SDS011;27010;47.718;12.912;2023-02-26T18:57:57;3.67;;;2.70;;
41275;SDS011;27010;47.718;12.912;2023-02-26T19:01:01;4.50;;;3.10;;
41275;SDS011;27010;47.718;12.912;2023-02-26T19:04:05;3.90;;;2.77;;
41275;SDS011;27010;47.718;12.912;2023-02-26T19:07:08;4.20;;;3.03;;
41275;SDS011;27010;47.718;12.912;2023-02-26T19:10:14;5.73;;;2.80;;
41275;SDS011;27010;47.718;12.912;2023-02-26T19:13:17;3.03;;;2.73;;
41275;SDS011;27010;47.718;12.912;2023-02-26T19:16:19;2.70;;;2.50;;
41275;SDS011;27010;47.718;12.912;2023-02-26T19:19:23;4.43;;;2.70;;
41275;SDS011;27010;47.718;12.912;2023-02-26T19:22:25;4.73;;;2.93;;
41275;SDS011;27010;47.718;12.912;2023-02-26T19:25:27;3.60;;;2.83;;
41275;SDS011;27010;47.718;12.912;2023-02-26T19:28:31;9.80;;;3.40;;
41275;SDS011;27010;47.718;12.912;2023-02-26T19:31:33;4.60;;;3.20;;
41275;SDS011;27010;47.718;12.912;2023-02-26T19:34:37;4.17;;;2.93;;
41275;SDS011;27010;47.718;12.912;2023-02-26T19:37:40;4.67;;;3.20;;
41275;SDS011;27010;47.718;12.912;2023-02-26T19:40:42;5.73;;;3.03;;
41275;SDS011;27010;47.718;12.912;2023-02-26T19:43:44;4.27;;;3.00;;
41275;SDS011;27010;47.718;12.912;2023-02-26T19:46:49;3.37;;;2.60;;
41275;SDS011;27010;47.718;12.912;2023-02-26T19:49:52;4.20;;;2.93;;
41275;SDS011;27010;47.718;12.912;2023-02-26T19:52:54;2.90;;;2.60;;
41275;SDS011;27010;47.718;12.912;2023-02-26T19:55:56;4.57;;;2.63;;
41275;SDS011;27010;47.718;12.912;2023-02-26T19:58:59;3.10;;;2.50;;
41275;SDS011;27010;47.718;12.912;2023-02-26T20:02:01;4.57;;;2.87;;
41275;SDS011;27010;47.718;12.912;2023-02-26T20:05:03;3.87;;;2.67;;
41275;SDS011;27010;47.718;12.912;2023-02-26T20:08:06;3.87;;;2.60;;
41275;SDS011;27010;47.718;12.912;2023-02-26T20:11:11;4.27;;;2.53;;
41275;SDS011;27010;47.718;12.912;2023-02-26T20:14:13;4.07;;;3.00;;
41275;SDS011;27010;47.718;12.912;2023-02-26T20:17:16;3.07;;;2.50;;
41275;SDS011;27010;47.718;12.912;2023-02-26T20:20:18;4.20;;;2.80;;
41275;SDS011;27010;47.718;12.912;2023-02-26T20:23:20;4.43;;;2.53;;
41275;SDS011;27010;47.718;12.912;2023-02-26T20:26:23;3.80;;;2.60;;
41275;SDS011;27010;47.718;12.912;2023-02-26T20:29:25;5.23;;;2.40;;
41275;SDS011;27010;47.718;12.912;2023-02-26T20:32:27;3.13;;;2.40;;
41275;SDS011;27010;47.718;12.912;2023-02-26T20:35:29;3.27;;;2.33;;
41275;SDS011;27010;47.718;12.912;2023-02-26T20:38:31;5.70;;;3.00;;
41275;SDS011;27010;47.718;12.912;2023-02-26T20:41:34;3.37;;;2.63;;
41275;SDS011;27010;47.718;12.912;2023-02-26T20:44:36;4.77;;;2.67;;
41275;SDS011;27010;47.718;12.912;2023-02-26T20:47:38;4.40;;;2.77;;
41275;SDS011;27010;47.718;12.912;2023-02-26T20:50:40;3.47;;;2.70;;
41275;SDS011;27010;47.718;12.912;2023-02-26T20:53:42;4.93;;;3.10;;
41275;SDS011;27010;47.718;12.912;2023-02-26T20:56:46;4.37;;;2.93;;
41275;SDS011;27010;47.718;12.912;2023-02-26T20:59:49;3.33;;;2.47;;
41275;SDS011;27010;47.718;12.912;2023-02-26T21:02:52;4.67;;;2.50;;
41275;SDS011;27010;47.718;12.912;2023-02-26T21:05:54;3.10;;;2.77;;
41275;SDS011;27010;47.718;12.912;2023-02-26T21:08:56;4.27;;;3.23;;